Terminal Aerodrome Forecast
Issued by NWS Billings, MT

Home | Current Version | Previous Version | Text Only | Print | Product List | Glossary Off
Versions: 1 2 3 4 5 6 7 8 9 10 11 12 13 14 15 16 17 18

000
FTUS45 KBYZ 171133
TAFMLS
TAF
KMLS 171133Z 1712/1812 33010KT P6SM VCSH FEW012 SCT080 OVC150
     FM172200 08010KT P6SM FEW020 SCT050 OVC080
     FM180200 10012G20KT P6SM VCSH SCT020 OVC040
     FM180400 10012G20KT 2SM -SN BR BKN012 OVC020=

USA.gov is the U.S. government's official web portal to all federal, state and local government web resources and services.